Meteo Giornale » Osservazioni meteo Italia » Treviso-Istrana

ore: 01:55 - Osservazioni Meteo Treviso-Istrana
Lat. 45° 41' N Lon. 12° 6' E Alt. 45 metri s.l.m.

poco_nuvoloso Europe/Rome

3 °C

Poco Nuvoloso

Temp. 24 Ore

-1 °C

10 °C

Nord-Est

7.4 Km/h

Dew point 0 °C

Umidità 80 %

Visibilità  10 Km

Il sole sorge alle ore 07:40

Il sole tramonta alle ore 17:06

Data e Ora Cielo e Fenomeni T °C DP °C Um. % Pres. hPa Vis. km Vento km/h
Oggi h: 01:55 poco_nuvoloso Poco Nuvoloso 3 0 80 1016 10 NE 7.4
Oggi h: 00:55 nuvoloso Nuvoloso 3 2 93 1015 10 N 7.4
Ieri h: 23:55 nuvoloso Nuvoloso 3 2 93 1015 10 NE 9.3
Ieri h: 22:55 nuvoloso Nuvoloso 4 3 93 1014 10 N 5.5
Ieri h: 21:55 nuvoloso Nuvoloso 5 4 93 1014 10 N/NE 7.4
Ieri h: 20:55 molto_nuvoloso Molto Nuvoloso 5 4 93 1014 10 N 5.5
Ieri h: 19:55 sereno Sereno 5 4 93 1013 10 N 5.5
Ieri h: 18:55 molto_nuvoloso Molto Nuvoloso 6 3 81 1013 10 N 3.7
Ieri h: 17:55 nuvoloso Nuvoloso 6 2 75 1013 10 N 1.8
Ieri h: 16:55 nuvoloso Nuvoloso 7 2 70 1013 10 S/SE 7.4
Ieri h: 14:55 nuvoloso Nuvoloso 10 1 53 1013 10 SO 7.4
Ieri h: 13:55 poco_nuvoloso Poco Nuvoloso 10 1 53 1014 10 O 7.4
Ieri h: 12:55 sereno Sereno 10 -1 46 1015 10 SO 9.3
Ieri h: 11:55 poco_nuvoloso Poco Nuvoloso 8 -4 42 1016 10 N 3.7
Ieri h: 10:55 poco_nuvoloso Poco Nuvoloso 6 -4 48 1016 10 E 11.1
Ieri h: 09:55 nuvoloso Nuvoloso 5 -1 65 1017 10 E/NE 7.4
Ieri h: 08:55 poco_nuvoloso Poco Nuvoloso 1 -4 69 1016 10 NE 7.4
Ieri h: 07:55 poco_nuvoloso Poco Nuvoloso 0 -5 68 1015 10 NE 11.1
Ieri h: 06:55 sereno Sereno 0 -3 80 1015 10 NE 11.1
Ieri h: 05:55 sereno Sereno 0 -4 74 1015 9 N/NE 11.1
Ieri h: 04:55 sereno Sereno 0 -4 74 1015 7 N 9.3
Ieri h: 03:55 sereno Sereno 0 -5 68 1016 6 N 7.4
Ieri h: 02:55 foschia Foschia 1 -2 80 1015 3 N 13
Ieri h: 01:55 foschia Foschia -1 -2 92 1015 3 N 11.1